Etusivu
METAR-TAF:

METAR-TAF

Lentoasemat :

Derby Field

Lovelock, Nevada, Yhdysvallat

Leveyspiiri: 40-03-59N, Pituuspiiri: 118-33-55W, korkeus merenpinnasta: 1190 m

Tämänhetkinen sää

Tämä raportti tehtiin 57 minuuttia sitten, kello 11.53 UTC
Tuuli 4 kn pohjoisesta/koillisesta
Lämpötila -6°C
Kosteus 58%
Ilmanpaine 1023 hPa
Näkyvyys: 16.1 km
selkeää

METAR: KLOL 181153Z AUTO 03004KT 10SM CLR M06/M13 A3020 RMK AO2 SLP244 T10561128 11022 21100 58007

Aika: 04:50 (12:50 UTC)


TAF: puuttuu

Säähavainnot ja -ennusteet yli 4000 lentoasemalta (METAR- ja TAF-raportit).

Käytössä olevat sääasemat on merkitty karttaan keltaisilla ja punaisilla pisteillä.

Aseta hiiri pisteen päälle nähdäksesi sääaseman nimen.

Klikkaa sitten nähdäksesi säähavainnot ja -ennusteet.

Kartan vaihtaminen: klikkaa mustalla rastilla varustettuja vihreitä pisteitä, niin voit zoomata sisään; viivalla varustettua vihreää pistettä, niin voit zoomata ulos tai vihreitä nuolia, niin pääset viereisille kartoille.


METAR-TAF: